Time;durP1;ratioP1;P1;durP2;ratioP2;P2;SDS_P1;SDS_P2;PMS_P1;PMS_P2;Temp;Humidity;BMP_temperature;BMP_pressure;BME280_temperature;BME280_humidity;BME280_pressure;Samples;Min_cycle;Max_cycle;Signal;HPM_P1;HPM_P2
2022/04/26 03:36:19;;;;;;;9.63;7.63;;;8.40;99.90;;;;;;4971453;28;19932;-50
2022/04/26 03:38:47;;;;;;;11.25;8.98;;;8.40;99.90;;;;;;4973846;28;20838;-54
2022/04/26 03:41:13;;;;;;;9.80;8.02;;;8.40;99.90;;;;;;4971930;28;20050;-55
2022/04/26 03:43:39;;;;;;;11.00;8.10;;;8.40;99.90;;;;;;4973797;28;20449;-56
2022/04/26 03:46:05;;;;;;;12.23;10.07;;;8.30;99.90;;;;;;4973482;28;20106;-56
2022/04/26 03:48:30;;;;;;;12.00;8.70;;;8.40;99.90;;;;;;4974028;28;20042;-57
2022/04/26 03:50:56;;;;;;;9.75;7.47;;;8.40;99.90;;;;;;4975092;28;20069;-57
2022/04/26 03:53:21;;;;;;;8.82;6.93;;;8.30;99.90;;;;;;4994727;23;20018;-57
2022/04/26 03:55:47;;;;;;;10.30;7.05;;;8.30;99.90;;;;;;4990903;28;20038;-57
2022/04/26 03:58:13;;;;;;;10.43;7.53;;;8.30;99.90;;;;;;4991547;28;20041;-59
2022/04/26 04:00:38;;;;;;;10.45;7.45;;;8.30;99.90;;;;;;4992866;28;20519;-58
2022/04/26 04:03:04;;;;;;;10.07;8.13;;;8.20;99.90;;;;;;4986810;28;20101;-58
2022/04/26 04:05:30;;;;;;;13.07;8.88;;;8.20;99.90;;;;;;4992741;28;20031;-58
2022/04/26 04:07:55;;;;;;;13.88;9.65;;;8.20;99.90;;;;;;4989701;28;21751;-53
2022/04/26 04:10:21;;;;;;;13.90;9.88;;;8.20;99.90;;;;;;4993292;28;20031;-58
2022/04/26 04:12:47;;;;;;;12.40;9.50;;;8.20;99.90;;;;;;4992313;28;20034;-56
2022/04/26 04:15:12;;;;;;;14.50;9.52;;;8.20;99.90;;;;;;4993373;28;20110;-56
2022/04/26 04:17:38;;;;;;;13.60;10.10;;;8.20;99.90;;;;;;4993360;28;20028;-57
2022/04/26 04:20:04;;;;;;;14.57;10.38;;;8.20;99.90;;;;;;4992491;28;20027;-59
2022/04/26 04:22:30;;;;;;;15.63;10.95;;;8.20;99.90;;;;;;4992713;28;20026;-59
2022/04/26 04:24:55;;;;;;;14.55;10.45;;;8.20;99.90;;;;;;4992962;28;20030;-58
2022/04/26 04:27:21;;;;;;;15.68;10.82;;;8.20;99.90;;;;;;4993290;28;20022;-57
2022/04/26 04:29:46;;;;;;;16.02;10.38;;;8.20;99.90;;;;;;4992091;28;20157;-58
2022/04/26 04:32:12;;;;;;;17.23;10.20;;;8.20;99.90;;;;;;4992245;28;20082;-58
2022/04/26 04:34:38;;;;;;;13.60;9.35;;;8.30;99.90;;;;;;4992719;28;20032;-57
2022/04/26 04:37:04;;;;;;;13.88;10.07;;;8.30;99.90;;;;;;4991152;28;20456;-57
2022/04/26 04:39:29;;;;;;;15.02;10.10;;;8.40;99.90;;;;;;4990070;28;20109;-58
2022/04/26 04:41:55;;;;;;;13.88;10.68;;;8.40;99.90;;;;;;4987292;28;20114;-59
2022/04/26 04:44:21;;;;;;;15.82;10.55;;;8.40;99.90;;;;;;4982793;28;20022;-58
2022/04/26 04:46:47;;;;;;;13.90;10.35;;;8.40;99.90;;;;;;4991884;28;20129;-59
2022/04/26 04:49:13;;;;;;;13.38;10.60;;;8.40;99.90;;;;;;4991208;28;20452;-56
2022/04/26 04:51:39;;;;;;;14.18;10.68;;;8.50;99.90;;;;;;4990974;28;20058;-58
2022/04/26 04:54:04;;;;;;;146.77;15.77;;;8.50;99.90;;;;;;4990738;28;20487;-59
2022/04/26 04:56:33;;;;;;;27.80;13.73;;;8.60;99.90;;;;;;4989120;28;20423;-59
2022/04/26 04:58:59;;;;;;;37.35;13.40;;;8.50;99.90;;;;;;4992847;28;20027;-59
2022/04/26 05:01:24;;;;;;;28.85;14.10;;;8.50;99.90;;;;;;4991753;28;20365;-59
2022/04/26 05:03:51;;;;;;;18.13;14.32;;;8.50;99.90;;;;;;4993712;28;20110;-59
2022/04/26 05:06:17;;;;;;;18.02;13.23;;;8.50;99.90;;;;;;4991859;28;20027;-59
2022/04/26 05:08:44;;;;;;;23.55;14.65;;;8.50;99.90;;;;;;4992561;28;20033;-60
2022/04/26 05:11:10;;;;;;;18.13;13.68;;;8.60;99.90;;;;;;4992313;28;20026;-59
2022/04/26 05:13:36;;;;;;;18.70;13.07;;;8.60;99.90;;;;;;4992068;28;20022;-59
2022/04/26 05:16:02;;;;;;;18.90;13.15;;;8.60;99.90;;;;;;4991022;28;20053;-58
2022/04/26 05:18:28;;;;;;;16.75;13.25;;;8.70;99.90;;;;;;4989167;28;20499;-58
2022/04/26 05:20:53;;;;;;;17.65;14.13;;;8.80;99.90;;;;;;4990694;28;20026;-59
2022/04/26 05:26:03;;;;;;;13.55;10.32;;;9.00;99.90;;;;;;4991206;28;20077;-55
2022/04/26 05:28:29;;;;;;;11.98;9.77;;;9.20;99.90;;;;;;4992065;28;20026;-58
2022/04/26 05:30:55;;;;;;;11.52;9.07;;;9.40;99.90;;;;;;4991837;28;20443;-59
2022/04/26 05:33:21;;;;;;;10.80;8.75;;;9.60;99.90;;;;;;4990678;28;20557;-59
2022/04/26 05:35:48;;;;;;;6.93;6.07;;;10.00;99.90;;;;;;4989825;28;20033;-54
2022/04/26 05:38:15;;;;;;;6.78;6.00;;;10.40;99.90;;;;;;4990766;28;20049;-59
2022/04/26 05:40:41;;;;;;;9.65;6.90;;;10.60;99.90;;;;;;4991605;28;20023;-58
2022/04/26 05:43:06;;;;;;;7.30;5.10;;;10.90;99.90;;;;;;4988960;28;20052;-57
2022/04/26 05:45:32;;;;;;;7.03;4.55;;;11.20;99.90;;;;;;4985802;28;20112;-57
2022/04/26 05:47:57;;;;;;;5.80;4.40;;;11.40;99.90;;;;;;4991539;28;20038;-57
2022/04/26 05:50:23;;;;;;;6.40;5.00;;;11.40;99.90;;;;;;4988955;28;20066;-59
2022/04/26 05:52:48;;;;;;;5.78;4.38;;;11.40;99.90;;;;;;4991588;28;20097;-58
2022/04/26 05:55:14;;;;;;;5.25;4.53;;;11.30;99.90;;;;;;4991080;28;20030;-59
2022/04/26 05:57:42;;;;;;;7.25;4.88;;;11.20;99.90;;;;;;4990706;28;20026;-59
2022/04/26 06:00:11;;;;;;;5.40;4.90;;;11.20;99.90;;;;;;4990413;28;20035;-58
2022/04/26 06:02:37;;;;;;;7.30;5.05;;;11.10;99.90;;;;;;4982724;28;20041;-59
2022/04/26 06:05:03;;;;;;;6.97;5.50;;;11.10;99.90;;;;;;4991168;28;20045;-60
2022/04/26 06:07:29;;;;;;;10.48;5.55;;;10.90;99.90;;;;;;4990303;28;20034;-56
2022/04/26 06:09:55;;;;;;;6.88;5.05;;;11.00;99.90;;;;;;4991553;28;20113;-59
2022/04/26 06:12:26;;;;;;;6.80;6.05;;;11.00;99.90;;;;;;4990226;28;20034;-57
2022/04/26 06:14:56;;;;;;;9.73;5.07;;;11.20;99.90;;;;;;4990887;28;20032;-57
2022/04/26 06:17:21;;;;;;;7.10;5.55;;;11.20;99.90;;;;;;4990777;28;20034;-60
2022/04/26 06:19:47;;;;;;;7.10;5.60;;;11.30;99.90;;;;;;4990100;28;20030;-50
2022/04/26 06:22:13;;;;;;;5.90;5.30;;;11.20;99.90;;;;;;4988351;28;20026;-58
2022/04/26 06:24:38;;;;;;;6.55;5.45;;;11.10;99.90;;;;;;4990917;28;20026;-58
2022/04/26 06:27:04;;;;;;;7.45;5.70;;;11.20;99.90;;;;;;4989703;28;20026;-59
2022/04/26 06:29:30;;;;;;;6.63;5.60;;;11.10;99.90;;;;;;4989115;28;20081;-58
2022/04/26 06:31:55;;;;;;;6.28;5.57;;;11.00;99.90;;;;;;4990012;28;20027;-58
2022/04/26 06:34:21;;;;;;;8.20;6.18;;;10.90;99.90;;;;;;4991494;28;20034;-59
2022/04/26 06:36:47;;;;;;;9.05;6.18;;;10.60;99.90;;;;;;4989556;28;20030;-58
2022/04/26 06:39:13;;;;;;;6.72;5.57;;;10.50;99.90;;;;;;4991782;28;20045;-59
2022/04/26 06:41:38;;;;;;;8.18;7.05;;;10.40;99.90;;;;;;4989479;28;20065;-59
2022/04/26 06:44:04;;;;;;;8.63;5.78;;;10.30;99.90;;;;;;4989721;28;20042;-58
2022/04/26 06:46:30;;;;;;;8.75;5.63;;;10.40;99.90;;;;;;4990168;28;20034;-58
2022/04/26 06:48:58;;;;;;;7.15;5.45;;;10.40;99.90;;;;;;4989923;28;20034;-57
2022/04/26 06:51:24;;;;;;;6.75;5.70;;;10.70;99.90;;;;;;4988474;28;20034;-59
2022/04/26 06:53:51;;;;;;;5.95;5.35;;;11.30;99.90;;;;;;4986748;28;20444;-56
2022/04/26 06:56:16;;;;;;;6.72;5.78;;;12.00;99.90;;;;;;4981010;28;20125;-58
2022/04/26 06:58:42;;;;;;;6.38;5.30;;;12.80;99.90;;;;;;4990361;28;20507;-59
2022/04/26 07:01:07;;;;;;;8.40;5.25;;;13.10;99.90;;;;;;4957383;28;20392;-60
2022/04/26 07:03:33;;;;;;;7.38;5.68;;;12.80;99.90;;;;;;4987590;28;20379;-57
2022/04/26 07:05:59;;;;;;;7.38;6.40;;;13.10;99.90;;;;;;4985718;28;20034;-58
2022/04/26 07:08:24;;;;;;;8.13;6.47;;;13.40;99.90;;;;;;4980165;28;20042;-60
2022/04/26 07:10:50;;;;;;;12.35;6.35;;;14.00;99.90;;;;;;4984200;28;20026;-58
2022/04/26 07:13:18;;;;;;;6.72;6.03;;;13.90;99.90;;;;;;4987019;28;20128;-59
2022/04/26 07:15:44;;;;;;;7.82;6.38;;;13.60;99.90;;;;;;4987297;28;20089;-58
2022/04/26 07:18:12;;;;;;;7.30;6.57;;;13.40;99.90;;;;;;4988747;28;20042;-60
2022/04/26 07:20:38;;;;;;;9.60;6.40;;;13.10;99.90;;;;;;4988738;28;20026;-60
2022/04/26 07:23:04;;;;;;;10.75;6.63;;;12.70;99.90;;;;;;4987297;28;20034;-59
2022/04/26 07:25:29;;;;;;;8.85;7.82;;;12.60;99.90;;;;;;4989579;28;20060;-58
2022/04/26 07:27:54;;;;;;;8.63;7.30;;;12.30;99.90;;;;;;4987206;28;20518;-59
2022/04/26 07:30:20;;;;;;;13.52;9.80;;;12.20;99.90;;;;;;4988524;28;20041;-58
2022/04/26 07:35:30;;;;;;;10.68;8.13;;;12.40;99.90;;;;;;4985350;28;20037;-56
2022/04/26 07:38:05;;;;;;;12.70;8.57;;;12.30;99.90;;;;;;4989075;28;20113;-59
2022/04/26 07:40:31;;;;;;;10.98;8.40;;;12.20;99.90;;;;;;4984860;28;20027;-60
2022/04/26 07:42:57;;;;;;;10.50;7.57;;;12.20;99.90;;;;;;4988614;28;20033;-58
2022/04/26 07:45:23;;;;;;;9.50;7.72;;;12.40;99.90;;;;;;4988364;28;20054;-59
2022/04/26 07:47:49;;;;;;;12.30;8.50;;;12.80;99.90;;;;;;4986529;28;20088;-57
2022/04/26 07:50:15;;;;;;;11.27;8.80;;;12.80;99.90;;;;;;4988942;28;20030;-57
2022/04/26 07:52:41;;;;;;;11.05;8.60;;;12.80;99.90;;;;;;4988872;28;20011;-58
2022/04/26 07:55:07;;;;;;;12.75;9.00;;;12.80;99.90;;;;;;4989014;28;20566;-59
2022/04/26 07:57:33;;;;;;;10.98;9.00;;;12.60;99.90;;;;;;4983764;28;20023;-56
2022/04/26 07:59:58;;;;;;;11.27;9.05;;;12.30;99.90;;;;;;4983057;28;20125;-59
2022/04/26 08:02:24;;;;;;;11.00;8.82;;;12.40;99.90;;;;;;4971486;28;20043;-58
2022/04/26 08:04:50;;;;;;;12.82;9.93;;;12.20;99.90;;;;;;4988754;28;20035;-58
2022/04/26 08:07:16;;;;;;;13.02;9.98;;;12.20;99.90;;;;;;4986026;28;20476;-59
2022/04/26 08:09:43;;;;;;;12.23;9.23;;;11.80;99.90;;;;;;4987973;28;20376;-59
2022/04/26 08:12:08;;;;;;;15.02;9.65;;;11.70;99.90;;;;;;4989433;28;20053;-59
2022/04/26 08:14:34;;;;;;;13.85;9.38;;;11.60;99.90;;;;;;4986610;28;20472;-50
2022/04/26 08:17:00;;;;;;;14.52;9.25;;;11.60;99.90;;;;;;4988707;28;20475;-59
2022/04/26 08:19:25;;;;;;;12.25;9.98;;;11.50;99.90;;;;;;4989683;28;20029;-59
2022/04/26 08:21:51;;;;;;;11.07;9.10;;;11.60;99.90;;;;;;4992315;28;20034;-57
2022/04/26 08:29:46;;;;;;;;;;;11.80;99.90;;;;;;4992198;28;20045;-58
2022/04/26 08:32:13;;;;;;;11.80;8.95;;;11.80;99.90;;;;;;4987782;28;19913;-59
2022/04/26 08:34:39;;;;;;;12.30;9.55;;;11.70;99.90;;;;;;4990047;28;20026;-60
2022/04/26 08:37:05;;;;;;;13.93;9.85;;;11.90;99.90;;;;;;4991429;28;20026;-59
2022/04/26 08:39:30;;;;;;;13.82;10.60;;;12.00;99.90;;;;;;4993504;28;20034;-58
2022/04/26 08:42:00;;;;;;;16.15;11.13;;;12.00;99.90;;;;;;4989929;28;20049;-58
2022/04/26 08:44:27;;;;;;;15.63;12.23;;;12.40;99.90;;;;;;4990028;28;20030;-60
2022/04/26 08:52:23;;;;;;;17.08;12.45;;;13.70;99.90;;;;;;4991113;28;20458;-60
2022/04/26 08:54:49;;;;;;;16.27;12.90;;;14.70;99.90;;;;;;4992748;28;20500;-59
2022/04/26 08:57:15;;;;;;;17.42;13.80;;;15.20;99.90;;;;;;4992343;28;20061;-59
2022/04/26 08:59:49;;;;;;;16.75;13.95;;;15.50;99.90;;;;;;4993298;28;20054;-60
2022/04/26 09:02:19;;;;;;;16.48;13.43;;;15.30;99.90;;;;;;4976115;28;20038;-60
2022/04/26 09:04:46;;;;;;;20.38;14.32;;;15.40;99.90;;;;;;4990418;28;20042;-59
2022/04/26 09:07:20;;;;;;;19.45;14.45;;;15.30;99.90;;;;;;4992784;28;20030;-58
2022/04/26 09:09:45;;;;;;;19.33;14.35;;;14.90;99.90;;;;;;4975511;28;20392;-57
2022/04/26 09:12:12;;;;;;;16.67;13.75;;;14.50;99.90;;;;;;4990621;28;20026;-55
2022/04/26 09:14:50;;;;;;;18.70;15.30;;;14.20;99.90;;;;;;4992662;28;20026;-60
2022/04/26 09:17:18;;;;;;;19.60;16.63;;;14.30;99.90;;;;;;4988629;28;20014;-57
2022/04/26 09:19:44;;;;;;;26.27;18.67;;;13.90;99.90;;;;;;4984298;28;20106;-59
2022/04/26 09:22:25;;;;;;;24.88;18.65;;;13.70;99.90;;;;;;4992320;28;20041;-58
2022/04/26 09:25:02;;;;;;;28.13;19.60;;;13.40;99.90;;;;;;4990332;28;20080;-60
2022/04/26 09:27:29;;;;;;;30.52;21.10;;;13.00;99.90;;;;;;4989590;28;20022;-59
2022/04/26 09:29:54;;;;;;;27.60;19.35;;;12.60;99.90;;;;;;4988542;28;20033;-58
2022/04/26 09:32:20;;;;;;;29.83;21.85;;;12.60;99.90;;;;;;4991819;28;20026;-59
2022/04/26 09:34:46;;;;;;;29.35;20.60;;;12.30;99.90;;;;;;4989959;28;20049;-60
2022/04/26 09:37:12;;;;;;;31.08;20.80;;;12.20;99.90;;;;;;4983239;28;20154;-58
2022/04/26 09:39:39;;;;;;;32.60;20.15;;;12.00;99.90;;;;;;4983557;28;20030;-58
2022/04/26 09:42:06;;;;;;;28.42;19.92;;;12.00;99.90;;;;;;4990575;28;20026;-58
2022/04/26 09:44:33;;;;;;;28.33;20.48;;;12.00;99.90;;;;;;4986962;28;20053;-53
2022/04/26 09:46:59;;;;;;;29.30;21.08;;;12.00;99.90;;;;;;4990268;28;20037;-59
2022/04/26 09:49:25;;;;;;;31.23;21.83;;;12.10;99.90;;;;;;4990364;28;20095;-58
2022/04/26 09:51:58;;;;;;;30.88;20.67;;;12.30;99.90;;;;;;4990962;28;20098;-52
2022/04/26 09:54:23;;;;;;;32.95;21.42;;;12.50;99.90;;;;;;4991320;28;20113;-56
2022/04/26 09:56:49;;;;;;;30.15;21.17;;;12.20;99.90;;;;;;4988638;28;20109;-55
2022/04/26 09:59:39;;;;;;;33.63;23.58;;;12.20;99.90;;;;;;4988273;28;20062;-58
2022/04/26 10:02:08;;;;;;;30.05;20.95;;;12.40;99.90;;;;;;4986732;28;20411;-58
2022/04/26 10:04:37;;;;;;;42.70;25.42;;;12.40;99.90;;;;;;4988685;28;20081;-57
2022/04/26 10:07:05;;;;;;;35.53;25.98;;;12.40;99.90;;;;;;4990906;28;20084;-57
2022/04/26 10:09:32;;;;;;;35.38;22.88;;;12.10;99.90;;;;;;4990948;28;20042;-56
2022/04/26 10:12:00;;;;;;;31.08;21.95;;;12.20;99.90;;;;;;4989305;28;20129;-59
2022/04/26 10:14:28;;;;;;;33.45;21.98;;;12.30;99.90;;;;;;4990025;28;20034;-58
2022/04/26 10:16:55;;;;;;;32.95;22.42;;;12.10;99.90;;;;;;4989619;28;20042;-58
2022/04/26 10:19:38;;;;;;;30.75;23.02;;;12.10;99.90;;;;;;4989830;28;20507;-57
2022/04/26 10:22:04;;;;;;;35.70;22.42;;;12.20;99.90;;;;;;4988791;28;20109;-56
2022/04/26 10:24:30;;;;;;;32.00;23.33;;;12.20;99.90;;;;;;4989330;28;20034;-60
2022/04/26 10:27:25;;;;;;;28.77;20.60;;;12.50;99.90;;;;;;4989592;28;20034;-56
2022/04/26 10:29:51;;;;;;;29.90;21.60;;;12.90;99.90;;;;;;4988008;28;20070;-55
2022/04/26 10:32:38;;;;;;;30.02;21.10;;;13.10;99.90;;;;;;4990413;28;20030;-58
2022/04/26 10:35:25;;;;;;;27.48;19.50;;;13.90;99.90;;;;;;4986535;28;20081;-58
2022/04/26 10:38:12;;;;;;;25.65;18.88;;;14.30;99.90;;;;;;4988415;28;20545;-55
2022/04/26 10:41:09;;;;;;;42.10;22.10;;;14.60;99.90;;;;;;4990955;28;20042;-58
2022/04/26 10:43:34;;;;;;;29.50;21.63;;;14.40;99.90;;;;;;4980995;28;20526;-59
2022/04/26 10:46:16;;;;;;;29.92;21.02;;;14.20;99.90;;;;;;4989031;28;20081;-57
2022/04/26 10:48:42;;;;;;;28.40;20.00;;;14.30;99.90;;;;;;4987988;28;20066;-59
2022/04/26 10:51:39;;;;;;;22.38;17.92;;;14.40;99.90;;;;;;4989401;28;20526;-59
2022/04/26 10:54:05;;;;;;;29.83;20.05;;;14.70;99.90;;;;;;4983075;28;20022;-58
2022/04/26 10:56:31;;;;;;;24.65;18.67;;;14.60;99.90;;;;;;4986124;28;20105;-55
2022/04/26 10:58:57;;;;;;;21.42;16.85;;;14.80;99.90;;;;;;4990828;28;20030;-59
2022/04/26 11:01:24;;;;;;;24.02;18.63;;;15.30;99.90;;;;;;4989790;28;20034;-58
2022/04/26 11:03:55;;;;;;;20.05;16.50;;;15.40;99.90;;;;;;4987655;28;20054;-52
2022/04/26 11:06:37;;;;;;;21.63;16.27;;;15.50;99.00;;;;;;4989828;28;20519;-58
2022/04/26 11:09:14;;;;;;;24.10;17.05;;;15.60;98.20;;;;;;4983380;28;20030;-60
2022/04/26 11:11:53;;;;;;;22.02;16.35;;;15.30;99.30;;;;;;4982042;28;20026;-60
2022/04/26 11:14:22;;;;;;;25.05;17.60;;;15.50;99.80;;;;;;4989304;28;20114;-58
2022/04/26 11:16:58;;;;;;;26.45;18.92;;;15.50;98.10;;;;;;4984227;28;20045;-59
2022/04/26 11:19:36;;;;;;;23.58;17.33;;;15.10;99.40;;;;;;4990362;28;20034;-56
2022/04/26 11:22:13;;;;;;;29.20;20.13;;;14.80;99.90;;;;;;4985440;28;20662;-57
2022/04/26 11:30:09;;;;;;;34.20;22.77;;;14.30;99.90;;;;;;4990300;28;20105;-58
2022/04/26 11:32:46;;;;;;;36.35;22.50;;;14.40;99.90;;;;;;4988310;28;20116;-59
2022/04/26 11:35:14;;;;;;;36.00;22.30;;;13.80;99.90;;;;;;4989713;28;20030;-56
2022/04/26 11:37:53;;;;;;;36.38;23.83;;;13.60;99.90;;;;;;4989664;28;20026;-57
2022/04/26 11:40:27;;;;;;;33.58;23.15;;;13.50;99.90;;;;;;4989328;28;20030;-52
2022/04/26 11:42:55;;;;;;;36.67;23.38;;;13.40;99.90;;;;;;4987088;28;20027;-59
2022/04/26 11:45:21;;;;;;;39.38;24.35;;;13.50;99.90;;;;;;4987760;28;20129;-56
2022/04/26 11:47:50;;;;;;;33.38;23.40;;;13.80;99.90;;;;;;4982376;28;20146;-59
2022/04/26 11:50:16;;;;;;;37.38;26.77;;;13.90;99.90;;;;;;4985613;28;20034;-60
2022/04/26 11:52:43;;;;;;;38.17;25.77;;;14.10;99.90;;;;;;4986702;28;20039;-60
2022/04/26 11:55:29;;;;;;;37.85;27.17;;;14.40;99.90;;;;;;4992702;28;20026;-57
2022/04/26 11:58:16;;;;;;;37.05;25.50;;;14.40;99.90;;;;;;4987943;28;20046;-57
2022/04/26 12:01:07;;;;;;;34.65;25.10;;;14.60;99.90;;;;;;4991730;28;20544;-57
2022/04/26 12:03:43;;;;;;;38.97;24.30;;;14.80;99.90;;;;;;4969440;28;20054;-58
2022/04/26 12:06:10;;;;;;;35.67;23.83;;;15.00;99.40;;;;;;4989610;28;20103;-58
2022/04/26 12:08:42;;;;;;;29.95;23.27;;;14.90;99.50;;;;;;4988400;28;20030;-56
2022/04/26 12:11:21;;;;;;;32.20;22.05;;;15.00;98.60;;;;;;4993616;28;20380;-59
2022/04/26 12:14:07;;;;;;;32.25;23.65;;;14.70;98.70;;;;;;4988080;28;20491;-58
2022/04/26 12:16:49;;;;;;;29.17;23.20;;;14.60;99.90;;;;;;4987375;28;20484;-55
2022/04/26 12:19:15;;;;;;;33.25;23.02;;;14.50;99.90;;;;;;4990769;28;20045;-56
2022/04/26 12:21:54;;;;;;;29.10;22.02;;;14.50;99.90;;;;;;4989139;28;20027;-55
2022/04/26 12:24:22;;;;;;;32.42;22.17;;;14.40;99.90;;;;;;4991532;28;20049;-56
2022/04/26 12:27:05;;;;;;;31.15;21.00;;;14.50;99.90;;;;;;4988409;28;20035;-59
2022/04/26 12:29:37;;;;;;;24.30;18.92;;;14.40;99.90;;;;;;4988060;28;20026;-57
2022/04/26 12:32:10;;;;;;;19.98;14.15;;;14.20;99.90;;;;;;4991514;28;20037;-56
2022/04/26 12:34:46;;;;;;;12.38;9.43;;;13.70;99.90;;;;;;4978527;28;20459;-54
2022/04/26 12:37:22;;;;;;;8.77;5.90;;;13.20;99.90;;;;;;4989370;28;20522;-58
2022/04/26 12:40:03;;;;;;;5.80;4.40;;;12.70;99.90;;;;;;4992995;28;20084;-57
2022/04/26 12:42:42;;;;;;;7.70;4.47;;;12.30;99.90;;;;;;4989152;28;20533;-58
2022/04/26 12:45:12;;;;;;;8.82;4.93;;;12.00;99.90;;;;;;4992292;28;20034;-58
2022/04/26 12:50:35;;;;;;;;;;;11.30;99.90;;;;;;4991379;28;20054;-58
2022/04/26 12:53:08;;;;;;;8.23;5.20;;;11.10;99.90;;;;;;4992020;28;20394;-57
2022/04/26 12:55:39;;;;;;;6.38;3.65;;;10.80;99.90;;;;;;4992667;28;20034;-59
2022/04/26 12:58:07;;;;;;;6.47;4.13;;;10.70;99.90;;;;;;4992559;28;20487;-59
2022/04/26 13:00:35;;;;;;;6.22;4.20;;;10.60;99.90;;;;;;4992163;28;20070;-58
2022/04/26 13:03:03;;;;;;;6.13;4.78;;;10.50;99.90;;;;;;4978516;28;20574;-57
2022/04/26 13:05:40;;;;;;;14.15;8.52;;;10.50;99.90;;;;;;4991985;28;20028;-58
2022/04/26 13:08:07;;;;;;;6.25;4.85;;;10.60;99.90;;;;;;4992590;28;20144;-57
2022/04/26 13:10:33;;;;;;;6.38;4.68;;;10.60;99.90;;;;;;4992357;28;20519;-58
2022/04/26 13:12:58;;;;;;;15.07;9.35;;;10.80;99.90;;;;;;4990410;28;20451;-56
2022/04/26 13:15:24;;;;;;;13.00;9.90;;;10.80;99.90;;;;;;4991603;28;20027;-58
2022/04/26 13:17:50;;;;;;;7.82;5.88;;;10.80;99.90;;;;;;4991312;28;20506;-51
2022/04/26 13:20:16;;;;;;;14.07;11.70;;;10.80;99.90;;;;;;4991502;28;20547;-56
2022/04/26 13:22:41;;;;;;;15.60;12.50;;;10.90;99.90;;;;;;4986101;28;20400;-60
2022/04/26 13:25:08;;;;;;;9.85;7.65;;;11.00;99.90;;;;;;4991644;28;20023;-55
2022/04/26 13:27:34;;;;;;;11.60;10.05;;;11.20;99.90;;;;;;4990891;28;20060;-58
2022/04/26 13:30:00;;;;;;;17.88;12.20;;;11.40;99.90;;;;;;4991942;28;20117;-59
2022/04/26 13:32:29;;;;;;;10.88;7.75;;;11.40;99.90;;;;;;4984052;28;20113;-58
2022/04/26 13:34:56;;;;;;;11.52;5.53;;;11.30;99.90;;;;;;4984079;28;20022;-58
2022/04/26 13:37:21;;;;;;;9.57;6.00;;;11.30;99.90;;;;;;4991975;28;20118;-58
2022/04/26 13:39:49;;;;;;;8.98;5.47;;;11.20;99.90;;;;;;4991812;28;20101;-57
2022/04/26 13:42:15;;;;;;;10.60;6.50;;;11.00;99.90;;;;;;4996321;28;20107;-60
2022/04/26 13:44:41;;;;;;;10.30;6.32;;;10.80;99.90;;;;;;4991001;28;20034;-59
2022/04/26 13:47:08;;;;;;;10.85;6.63;;;10.70;99.90;;;;;;4991516;28;20019;-58
2022/04/26 13:49:34;;;;;;;11.48;5.53;;;10.70;99.90;;;;;;4990865;28;20400;-58
2022/04/26 13:52:09;;;;;;;10.07;7.32;;;10.70;99.90;;;;;;4988835;28;20118;-59
2022/04/26 13:54:35;;;;;;;12.68;7.63;;;10.80;99.90;;;;;;4991407;28;20058;-56
2022/04/26 13:57:00;;;;;;;10.00;5.50;;;11.00;99.90;;;;;;4984121;28;20463;-56
2022/04/26 13:59:26;;;;;;;9.63;6.05;;;11.10;99.90;;;;;;4991442;28;20034;-60
2022/04/26 14:01:53;;;;;;;7.03;5.70;;;11.30;99.90;;;;;;4991251;28;20058;-51
2022/04/26 14:04:20;;;;;;;7.45;5.55;;;11.40;99.90;;;;;;4976001;28;20101;-57
2022/04/26 14:06:47;;;;;;;9.32;5.53;;;11.40;99.90;;;;;;4990796;28;20030;-59
2022/04/26 14:09:12;;;;;;;8.60;5.60;;;11.50;99.90;;;;;;4992026;28;20037;-56
2022/04/26 14:11:38;;;;;;;6.95;6.10;;;11.50;99.90;;;;;;4991510;28;20022;-57
2022/04/26 14:22:16;;;;;;;8.27;6.03;;;11.80;99.90;;;;;;4991691;28;20029;-56
2022/04/26 14:24:42;;;;;;;10.15;7.00;;;11.90;99.90;;;;;;4991475;28;20042;-60
2022/04/26 14:27:08;;;;;;;8.48;5.80;;;11.90;99.90;;;;;;4990809;28;20114;-59
2022/04/26 14:29:34;;;;;;;6.53;5.38;;;12.00;99.90;;;;;;4991136;28;20735;-57
2022/04/26 14:31:59;;;;;;;8.90;6.88;;;12.00;99.90;;;;;;4991279;28;20019;-59
2022/04/26 14:34:25;;;;;;;8.93;6.43;;;12.00;99.90;;;;;;4990338;28;20039;-60
2022/04/26 14:36:51;;;;;;;9.65;7.00;;;12.10;99.90;;;;;;4989572;28;20582;-59
2022/04/26 14:39:17;;;;;;;10.38;7.20;;;12.00;99.90;;;;;;4992140;28;20030;-57
2022/04/26 14:41:43;;;;;;;10.48;6.88;;;12.10;99.90;;;;;;4990868;28;20026;-58
2022/04/26 14:44:09;;;;;;;10.93;7.25;;;12.10;99.90;;;;;;4991343;28;20491;-59
2022/04/26 14:46:35;;;;;;;8.88;6.75;;;12.00;99.90;;;;;;4990677;28;20038;-57
2022/04/26 14:49:01;;;;;;;14.30;9.00;;;12.10;99.90;;;;;;4990561;28;20513;-58
2022/04/26 14:51:26;;;;;;;9.52;6.97;;;12.20;99.90;;;;;;4990045;28;20030;-58
2022/04/26 14:53:52;;;;;;;9.20;6.47;;;12.10;99.90;;;;;;4990564;28;20030;-49
2022/04/26 14:56:18;;;;;;;9.10;6.68;;;12.10;99.90;;;;;;4989290;28;20065;-54
2022/04/26 14:58:43;;;;;;;8.55;6.97;;;11.90;99.90;;;;;;4989839;28;20052;-51
2022/04/26 15:01:10;;;;;;;14.93;8.32;;;11.70;99.90;;;;;;4991228;28;20419;-62
2022/04/26 15:03:36;;;;;;;11.15;7.28;;;11.50;99.90;;;;;;4974164;28;20046;-58
2022/04/26 15:06:01;;;;;;;12.45;7.40;;;11.30;99.90;;;;;;4989625;28;20026;-57
2022/04/26 15:11:11;;;;;;;11.13;7.30;;;11.10;99.90;;;;;;4990409;28;20041;-58
2022/04/26 15:16:39;;;;;;;10.10;7.53;;;10.90;99.90;;;;;;5002659;28;20033;-58
2022/04/26 15:19:09;;;;;;;12.02;8.45;;;10.90;99.90;;;;;;4988858;28;20499;-57
2022/04/26 15:21:35;;;;;;;11.18;7.93;;;10.80;99.90;;;;;;4989390;28;20511;-57
2022/04/26 15:24:01;;;;;;;9.98;7.28;;;10.80;99.90;;;;;;4989649;28;20054;-58
2022/04/26 15:26:27;;;;;;;12.10;8.25;;;10.80;99.90;;;;;;4988384;28;20519;-58
2022/04/26 15:28:53;;;;;;;13.40;8.55;;;10.70;99.90;;;;;;4988817;28;20053;-58
2022/04/26 15:31:20;;;;;;;11.07;8.57;;;10.70;99.90;;;;;;4990599;28;20088;-58
2022/04/26 15:33:47;;;;;;;13.68;8.45;;;10.70;99.90;;;;;;4988304;28;20037;-55
2022/04/26 15:36:13;;;;;;;14.80;9.93;;;10.60;99.90;;;;;;4990067;28;20047;-59
2022/04/26 15:38:39;;;;;;;14.45;9.65;;;10.60;99.90;;;;;;4990012;28;20105;-58
2022/04/26 15:41:05;;;;;;;18.90;10.43;;;10.60;99.90;;;;;;4999939;28;20448;-59
2022/04/26 15:43:36;;;;;;;17.30;10.80;;;10.60;99.90;;;;;;5002071;28;20038;-59
2022/04/26 15:46:03;;;;;;;13.50;8.80;;;10.60;99.90;;;;;;5005396;28;20026;-57
2022/04/26 15:48:29;;;;;;;10.95;8.60;;;10.50;99.90;;;;;;5009466;28;20120;-57
2022/04/26 15:50:55;;;;;;;46.47;23.02;;;10.50;99.90;;;;;;5009831;28;20058;-59
2022/04/26 15:53:21;;;;;;;21.52;14.20;;;10.50;99.90;;;;;;5008939;28;20050;-56
2022/04/26 15:55:47;;;;;;;33.03;20.65;;;10.50;99.90;;;;;;5010063;28;20394;-57
2022/04/26 15:58:12;;;;;;;19.33;10.07;;;10.50;99.90;;;;;;5008755;28;20025;-57
2022/04/26 16:00:38;;;;;;;13.48;8.25;;;10.50;99.90;;;;;;5009134;28;20041;-59
2022/04/26 16:03:04;;;;;;;15.68;11.43;;;10.60;99.90;;;;;;4991522;28;20040;-59
2022/04/26 16:05:30;;;;;;;21.55;13.35;;;10.60;99.90;;;;;;4989920;28;20034;-60
2022/04/26 16:07:57;;;;;;;18.75;12.55;;;10.70;99.90;;;;;;4989176;28;20037;-59
2022/04/26 16:21:25;;;;;;;14.20;10.18;;;10.90;99.90;;;;;;4989942;28;20045;-59
2022/04/26 16:23:55;;;;;;;12.77;10.35;;;10.90;99.90;;;;;;4989707;28;20029;-55
2022/04/26 16:26:22;;;;;;;14.73;11.23;;;10.90;99.90;;;;;;4989949;28;20037;-58
2022/04/26 16:28:48;;;;;;;12.27;9.77;;;10.90;99.90;;;;;;4989858;28;20430;-59
2022/04/26 16:31:19;;;;;;;13.80;10.30;;;10.90;99.90;;;;;;4992367;28;20022;-59
2022/04/26 16:33:45;;;;;;;15.00;11.02;;;10.90;99.90;;;;;;4988938;28;20407;-59
2022/04/26 16:36:11;;;;;;;14.70;11.27;;;10.90;99.90;;;;;;4989686;28;20030;-57
2022/04/26 16:38:37;;;;;;;14.93;10.45;;;10.90;99.90;;;;;;4987302;28;20026;-60
2022/04/26 16:41:06;;;;;;;19.48;15.35;;;10.90;99.90;;;;;;4993227;28;20085;-60
2022/04/26 16:43:36;;;;;;;17.05;13.95;;;10.90;99.90;;;;;;4993089;28;20420;-60
2022/04/26 16:46:01;;;;;;;17.35;11.55;;;11.00;99.90;;;;;;4994151;28;20053;-60
2022/04/26 16:48:28;;;;;;;12.63;9.93;;;11.20;99.90;;;;;;4993418;28;20058;-58
2022/04/26 16:50:53;;;;;;;13.13;10.48;;;11.30;99.90;;;;;;4992428;28;20031;-59
2022/04/26 16:53:19;;;;;;;15.25;10.63;;;11.40;99.90;;;;;;4992121;28;20477;-58
2022/04/26 16:55:46;;;;;;;17.42;12.77;;;11.20;99.90;;;;;;4993101;28;20033;-58
2022/04/26 16:58:13;;;;;;;16.52;12.18;;;11.00;99.90;;;;;;4992596;28;20443;-58
2022/04/26 17:00:41;;;;;;;19.40;14.77;;;10.90;99.90;;;;;;4993129;28;20018;-58
2022/04/26 17:03:06;;;;;;;24.27;16.60;;;10.90;99.90;;;;;;4992245;28;20113;-57
2022/04/26 17:05:32;;;;;;;23.35;17.38;;;10.80;99.90;;;;;;4977220;28;20217;-58